createdAt,value
2023-03-05T00:01:13.191Z,100761.44
2023-03-05T00:03:40.180Z,100761.22
2023-03-05T00:06:07.412Z,100760.25
2023-03-05T00:08:34.248Z,100754.16
2023-03-05T00:11:06.643Z,100757.50
2023-03-05T00:13:33.816Z,100749.38
2023-03-05T00:16:06.449Z,100753.81
2023-03-05T00:18:33.885Z,100757.22
2023-03-05T00:21:00.662Z,100753.81
2023-03-05T00:23:27.703Z,100752.00
2023-03-05T00:25:54.202Z,100748.44
2023-03-05T00:28:20.692Z,100744.88
2023-03-05T00:30:47.525Z,100732.34
2023-03-05T00:33:14.781Z,100732.16
2023-03-05T00:35:46.424Z,100739.09
2023-03-05T00:38:13.457Z,100737.16
2023-03-05T00:40:41.502Z,100732.78
2023-03-05T00:43:08.884Z,100722.31
2023-03-05T00:45:35.679Z,100719.72
2023-03-05T00:48:03.160Z,100720.59
2023-03-05T00:50:29.658Z,100716.13
2023-03-05T00:52:56.136Z,100726.59
2023-03-05T00:55:22.707Z,100721.34
2023-03-05T00:57:49.360Z,100715.38
2023-03-05T01:00:16.548Z,100709.25
2023-03-05T01:02:43.678Z,100717.94
2023-03-05T01:05:14.164Z,100708.28
2023-03-05T01:07:40.705Z,100705.66
2023-03-05T01:10:11.881Z,100697.78
2023-03-05T01:12:38.871Z,100692.47
2023-03-05T01:15:06.628Z,100703.75
2023-03-05T01:17:33.346Z,100683.47
2023-03-05T01:20:00.019Z,100680.84
2023-03-05T01:22:26.780Z,100677.31
2023-03-05T01:24:53.571Z,100673.78
2023-03-05T01:27:20.113Z,100666.75
2023-03-05T01:29:46.672Z,100662.50
2023-03-05T01:32:13.235Z,100657.31
2023-03-05T01:34:41.993Z,100654.66
2023-03-05T01:37:09.504Z,100664.13
2023-03-05T01:39:36.428Z,100653.50
2023-03-05T01:42:04.286Z,100645.59
2023-03-05T01:44:32.033Z,100650.81
2023-03-05T01:46:58.534Z,100644.75
2023-03-05T01:49:33.585Z,100648.41
2023-03-05T01:52:18.097Z,100645.78
2023-03-05T01:54:54.287Z,100645.84
2023-03-05T01:57:24.779Z,100646.69
2023-03-05T01:59:56.550Z,100636.94
2023-03-05T02:02:23.225Z,100637.69
2023-03-05T02:04:54.885Z,100629.94
2023-03-05T02:07:22.381Z,100637.75
2023-03-05T02:09:49.139Z,100620.22
2023-03-05T02:12:16.372Z,100626.22
2023-03-05T02:14:46.614Z,100627.03
2023-03-05T02:17:13.572Z,100621.00
2023-03-05T02:19:48.174Z,100628.00
2023-03-05T02:22:16.286Z,100618.38
2023-03-05T02:24:42.786Z,100617.59
2023-03-05T02:27:09.477Z,100604.47
2023-03-05T02:29:40.924Z,100605.31
2023-03-05T02:32:08.624Z,100604.28
2023-03-05T02:34:36.110Z,100606.59
2023-03-05T02:37:04.575Z,100600.13
2023-03-05T02:39:33.288Z,100593.81
2023-03-05T02:42:00.121Z,100595.31
2023-03-05T02:44:27.693Z,100593.41
2023-03-05T02:46:54.779Z,100588.06
2023-03-05T02:49:21.407Z,100595.03
2023-03-05T02:51:47.849Z,100590.66
2023-03-05T02:54:14.512Z,100586.19
2023-03-05T02:56:41.906Z,100580.13
2023-03-05T02:59:08.400Z,100581.94
2023-03-05T03:01:35.342Z,100582.81
2023-03-05T03:04:01.922Z,100575.81
2023-03-05T03:06:28.446Z,100578.28
2023-03-05T03:08:54.935Z,100572.78
2023-03-05T03:11:21.547Z,100583.22
2023-03-05T03:13:48.094Z,100571.81
2023-03-05T03:16:15.502Z,100561.38
2023-03-05T03:18:42.486Z,100564.66
2023-03-05T03:21:08.935Z,100542.84
2023-03-05T03:23:35.633Z,100548.88
2023-03-05T03:26:02.228Z,100547.13
2023-03-05T03:28:28.745Z,100551.50
2023-03-05T03:30:55.339Z,100541.94
2023-03-05T03:33:22.344Z,100532.47
2023-03-05T03:35:48.825Z,100536.09
2023-03-05T03:38:15.350Z,100536.16
2023-03-05T03:40:42.323Z,100528.41
2023-03-05T03:43:08.932Z,100527.66
2023-03-05T03:45:35.438Z,100524.25
2023-03-05T03:48:02.121Z,100528.69
2023-03-05T03:50:28.593Z,100527.03
2023-03-05T03:52:55.149Z,100526.19
2023-03-05T03:55:21.632Z,100524.66
2023-03-05T03:57:48.061Z,100513.47
2023-03-05T04:00:14.893Z,100515.34
2023-03-05T04:02:42.948Z,100506.66
2023-03-05T04:05:09.702Z,100505.91
2023-03-05T04:07:36.199Z,100500.81
2023-03-05T04:10:03.269Z,100502.72
2023-03-05T04:12:29.741Z,100503.75
2023-03-05T04:14:56.254Z,100506.41
2023-03-05T04:17:22.843Z,100504.69
2023-03-05T04:19:49.331Z,100496.88
2023-03-05T04:22:17.670Z,100490.84
2023-03-05T04:24:44.569Z,100497.81
2023-03-05T04:27:11.223Z,100485.56
2023-03-05T04:29:38.602Z,100483.88
2023-03-05T04:32:05.377Z,100481.19
2023-03-05T04:34:32.892Z,100490.78
2023-03-05T04:36:59.504Z,100482.97
2023-03-05T04:39:25.994Z,100477.78
2023-03-05T04:41:52.457Z,100465.63
2023-03-05T04:44:19.212Z,100473.59
2023-03-05T04:46:46.069Z,100473.66
2023-03-05T04:49:12.689Z,100468.56
2023-03-05T04:51:39.172Z,100454.66
2023-03-05T04:54:05.700Z,100459.88
2023-03-05T04:56:32.153Z,100463.19
2023-03-05T04:58:58.931Z,100453.53
2023-03-05T05:01:25.819Z,100450.81
2023-03-05T05:03:52.433Z,100461.31
2023-03-05T05:06:18.898Z,100464.88
2023-03-05T05:08:45.350Z,100457.97
2023-03-05T05:11:13.934Z,100447.53
2023-03-05T05:13:40.402Z,100452.75
2023-03-05T05:16:07.619Z,100451.94
2023-03-05T05:18:34.260Z,100457.97
2023-03-05T05:21:00.889Z,100458.81
2023-03-05T05:23:27.514Z,100458.81
2023-03-05T05:26:01.743Z,100450.97
2023-03-05T05:28:29.005Z,100453.66
2023-03-05T05:30:55.657Z,100449.38
2023-03-05T05:33:23.128Z,100453.00
2023-03-05T05:35:50.066Z,100452.25
2023-03-05T05:38:16.781Z,100457.47
2023-03-05T05:40:43.282Z,100449.63
2023-03-05T05:43:09.802Z,100448.78
2023-03-05T05:45:38.562Z,100443.56
2023-03-05T05:48:05.159Z,100440.91
2023-03-05T05:50:31.616Z,100438.34
2023-03-05T05:52:58.100Z,100446.19
2023-03-05T05:55:24.582Z,100440.94
2023-03-05T05:57:51.110Z,100434.81
2023-03-05T06:00:18.114Z,100434.91
2023-03-05T06:02:44.772Z,100440.16
2023-03-05T06:05:13.457Z,100434.06
2023-03-05T06:07:40.285Z,100432.31
2023-03-05T06:10:07.708Z,100435.84
2023-03-05T06:12:34.167Z,100438.44
2023-03-05T06:15:00.650Z,100435.94
2023-03-05T06:17:30.769Z,100440.38
2023-03-05T06:19:58.390Z,100437.81
2023-03-05T06:22:24.994Z,100428.25
2023-03-05T06:24:51.478Z,100437.94
2023-03-05T06:27:17.992Z,100428.38
2023-03-05T06:29:44.465Z,100432.78
2023-03-05T06:32:11.061Z,100437.91
2023-03-05T06:34:37.805Z,100433.47
2023-03-05T06:37:04.248Z,100429.91
2023-03-05T06:39:31.624Z,100435.13
2023-03-05T06:41:58.313Z,100435.28
2023-03-05T06:44:25.681Z,100429.16
2023-03-05T06:46:52.323Z,100429.97
2023-03-05T06:49:18.872Z,100427.50
2023-03-05T06:51:45.338Z,100418.06
2023-03-05T06:54:14.708Z,100421.72
2023-03-05T06:56:44.034Z,100415.75
2023-03-05T06:59:12.462Z,100422.69
2023-03-05T07:01:39.218Z,100427.06
2023-03-05T07:04:06.741Z,100422.78
2023-03-05T07:06:34.824Z,100423.75
2023-03-05T07:09:02.004Z,100421.19
2023-03-05T07:11:29.709Z,100416.09
2023-03-05T07:13:56.184Z,100418.88
2023-03-05T07:16:26.086Z,100414.72
2023-03-05T07:18:53.181Z,100425.34
2023-03-05T07:21:22.382Z,100415.06
2023-03-05T07:23:49.351Z,100411.78
2023-03-05T07:26:16.834Z,100402.47
2023-03-05T07:28:43.986Z,100407.03
2023-03-05T07:31:16.432Z,100408.75
2023-03-05T07:33:43.000Z,100402.63
2023-03-05T07:36:10.118Z,100405.47
2023-03-05T07:38:37.223Z,100403.13
2023-03-05T07:41:09.759Z,100401.66
2023-03-05T07:43:36.434Z,100406.13
2023-03-05T07:46:07.903Z,100400.84
2023-03-05T07:48:34.517Z,100392.44
2023-03-05T07:51:21.694Z,100396.94
2023-03-05T07:53:50.060Z,100394.56
2023-03-05T07:56:24.185Z,100386.00
2023-03-05T07:58:50.713Z,100391.50
2023-03-05T08:01:17.340Z,100383.66
2023-03-05T08:03:44.225Z,100386.38
2023-03-05T08:06:12.323Z,100386.59
2023-03-05T08:08:38.912Z,100391.06
2023-03-05T08:11:10.869Z,100384.28
2023-03-05T08:13:37.552Z,100380.00
2023-03-05T08:16:25.796Z,100389.69
2023-03-05T08:18:56.068Z,100378.41
2023-03-05T08:21:34.715Z,100378.28
2023-03-05T08:24:04.148Z,100374.72
2023-03-05T08:26:32.897Z,100378.09
2023-03-05T08:28:59.937Z,100378.47
2023-03-05T08:31:27.568Z,100373.03
2023-03-05T08:33:56.758Z,100373.03
2023-03-05T08:36:23.394Z,100378.94
2023-03-05T08:38:50.661Z,100376.16
2023-03-05T08:41:18.689Z,100382.34
2023-03-05T08:43:45.155Z,100372.78
2023-03-05T08:46:12.809Z,100385.22
2023-03-05T08:48:39.368Z,100375.91
2023-03-05T08:51:10.958Z,100372.72
2023-03-05T08:53:37.467Z,100377.41
2023-03-05T08:56:04.196Z,100373.38
2023-03-05T08:58:30.914Z,100368.31
2023-03-05T09:00:57.504Z,100374.38
2023-03-05T09:03:24.005Z,100373.66
2023-03-05T09:05:51.484Z,100368.44
2023-03-05T09:08:19.769Z,100371.88
2023-03-05T09:10:46.683Z,100362.31
2023-03-05T09:13:13.175Z,100361.97
2023-03-05T09:15:39.725Z,100344.03
2023-03-05T09:18:08.939Z,100352.22
2023-03-05T09:20:35.933Z,100349.09
2023-03-05T09:23:02.888Z,100358.91
2023-03-05T09:25:29.359Z,100344.75
2023-03-05T09:27:55.854Z,100341.41
2023-03-05T09:30:23.080Z,100331.84
2023-03-05T09:32:51.013Z,100342.88
2023-03-05T09:35:17.491Z,100335.88
2023-03-05T09:37:44.001Z,100347.22
2023-03-05T09:40:15.905Z,100347.31
2023-03-05T09:43:01.423Z,100339.09
2023-03-05T09:45:39.560Z,100336.94
2023-03-05T09:48:35.468Z,100342.13
2023-03-05T09:51:05.167Z,100336.91
2023-03-05T09:53:43.021Z,100334.00
2023-03-05T09:56:13.851Z,100334.91
2023-03-05T09:58:54.600Z,100330.78
2023-03-05T10:01:29.634Z,100329.84
2023-03-05T10:04:25.821Z,100336.09
2023-03-05T10:07:08.916Z,100338.66
2023-03-05T10:09:59.050Z,100336.91
2023-03-05T10:12:42.858Z,100342.94
2023-03-05T10:15:52.052Z,100333.06
2023-03-05T10:18:24.738Z,100337.13
2023-03-05T10:20:56.771Z,100336.25
2023-03-05T10:23:29.595Z,100336.84
2023-03-05T10:26:17.798Z,100348.13
2023-03-05T10:29:21.150Z,100338.63
2023-03-05T10:31:56.683Z,100321.41
2023-03-05T10:34:31.179Z,100327.81
2023-03-05T10:37:22.510Z,100322.66
2023-03-05T10:40:00.361Z,100325.50
2023-03-05T10:42:45.629Z,100322.13
2023-03-05T10:45:21.197Z,100316.88
2023-03-05T10:48:39.110Z,100320.19
2023-03-05T10:51:26.009Z,100311.63
2023-03-05T10:53:58.055Z,100314.28
2023-03-05T10:56:27.678Z,100309.63
2023-03-05T10:58:54.822Z,100319.75
2023-03-05T11:01:28.047Z,100317.06
2023-03-05T11:03:58.204Z,100312.81
2023-03-05T11:06:38.070Z,100306.25
2023-03-05T11:09:32.179Z,100305.16
2023-03-05T11:12:16.117Z,100293.88
2023-03-05T11:15:02.673Z,100292.22
2023-03-05T11:17:37.454Z,100285.56
2023-03-05T11:20:23.075Z,100284.16
2023-03-05T11:23:11.200Z,100275.16
2023-03-05T11:26:02.213Z,100271.66
2023-03-05T11:28:35.906Z,100269.09
2023-03-05T11:31:07.720Z,100264.63
2023-03-05T11:33:36.808Z,100259.63
2023-03-05T11:36:12.194Z,100278.41
2023-03-05T11:38:50.079Z,100249.75
2023-03-05T11:41:21.103Z,100248.28
2023-03-05T11:43:49.488Z,100243.94
2023-03-05T11:46:16.544Z,100242.16
2023-03-05T11:48:45.097Z,100243.94
2023-03-05T11:51:36.352Z,100240.13
2023-03-05T11:54:08.877Z,100244.72
2023-03-05T11:56:37.444Z,100242.03
2023-03-05T11:59:14.737Z,100235.53
2023-03-05T12:01:46.740Z,100225.72
2023-03-05T12:04:13.925Z,100233.66
2023-03-05T12:06:45.987Z,100223.75
2023-03-05T12:09:37.810Z,100228.56
2023-03-05T12:12:36.294Z,100213.56
2023-03-05T12:15:11.918Z,100221.09
2023-03-05T12:17:54.756Z,100208.44
2023-03-05T12:20:40.047Z,100210.66
2023-03-05T12:23:12.358Z,100204.22
2023-03-05T12:25:41.741Z,100203.38
2023-03-05T12:28:15.406Z,100197.91
2023-03-05T12:30:42.275Z,100193.50
2023-03-05T12:33:32.939Z,100188.16
2023-03-05T12:36:20.950Z,100184.75
2023-03-05T12:38:53.845Z,100188.16
2023-03-05T12:41:23.525Z,100190.72
2023-03-05T12:44:05.182Z,100182.78
2023-03-05T12:46:38.301Z,100176.81
2023-03-05T12:49:20.377Z,100170.84
2023-03-05T12:51:52.110Z,100175.25
2023-03-05T12:54:39.816Z,100156.41
2023-03-05T12:57:17.563Z,100147.41
2023-03-05T13:00:10.865Z,100146.25
2023-03-05T13:02:40.985Z,100137.16
2023-03-05T13:05:21.641Z,100127.03
2023-03-05T13:07:49.460Z,100126.25
2023-03-05T13:10:29.308Z,100133.03
2023-03-05T13:12:58.469Z,100132.97
2023-03-05T13:15:26.509Z,100126.00
2023-03-05T13:18:03.332Z,100122.47
2023-03-05T13:20:38.721Z,100120.81
2023-03-05T13:23:07.967Z,100109.44
2023-03-05T13:25:34.533Z,100107.47
2023-03-05T13:28:06.857Z,100117.78
2023-03-05T13:30:34.738Z,100110.66
2023-03-05T13:33:03.743Z,100101.09
2023-03-05T13:35:32.426Z,100102.94
2023-03-05T13:37:59.270Z,100107.56
2023-03-05T13:40:31.846Z,100103.88
2023-03-05T13:43:13.430Z,100109.78
2023-03-05T13:45:40.088Z,100095.81
2023-03-05T13:48:07.398Z,100096.72
2023-03-05T13:50:37.623Z,100085.19
2023-03-05T13:53:27.053Z,100087.75
2023-03-05T13:56:00.218Z,100092.00
2023-03-05T13:58:50.782Z,100088.38
2023-03-05T14:01:42.551Z,100089.13
2023-03-05T14:04:15.632Z,100083.69
2023-03-05T14:06:52.101Z,100077.44
2023-03-05T14:09:28.768Z,100077.25
2023-03-05T14:12:00.721Z,100082.38
2023-03-05T14:14:29.131Z,100072.03
2023-03-05T14:16:56.271Z,100065.25
2023-03-05T14:19:40.708Z,100066.28
2023-03-05T14:22:40.795Z,100064.53
2023-03-05T14:25:39.637Z,100054.78
2023-03-05T14:28:24.457Z,100058.25
2023-03-05T14:30:53.966Z,100055.63
2023-03-05T14:33:26.497Z,100046.97
2023-03-05T14:35:53.939Z,100036.56
2023-03-05T14:38:24.599Z,100032.16
2023-03-05T14:40:51.107Z,100040.03
2023-03-05T14:43:17.641Z,100030.47
2023-03-05T14:45:44.852Z,100028.91
2023-03-05T14:48:13.995Z,100036.84
2023-03-05T14:50:47.295Z,100027.09
2023-03-05T14:53:17.183Z,100013.94
2023-03-05T14:55:44.734Z,100016.56
2023-03-05T14:58:14.972Z,100014.84
2023-03-05T15:00:41.791Z,100010.53
2023-03-05T15:03:12.352Z,100011.31
2023-03-05T15:05:39.584Z,100005.13
2023-03-05T15:08:06.364Z,100012.13
2023-03-05T15:10:32.882Z,100004.25
2023-03-05T15:12:59.371Z,99993.75
2023-03-05T15:15:26.267Z,99993.84
2023-03-05T15:17:54.946Z,99997.41
2023-03-05T15:20:27.297Z,99986.94
2023-03-05T15:22:54.246Z,99988.84
2023-03-05T15:25:22.438Z,99989.75
2023-03-05T15:27:50.849Z,99989.78
2023-03-05T15:30:26.086Z,99981.81
2023-03-05T15:32:54.866Z,99980.03
2023-03-05T15:35:23.227Z,99979.09
2023-03-05T15:37:49.791Z,99975.59
2023-03-05T15:40:16.620Z,99978.34
2023-03-05T15:42:43.336Z,99981.88
2023-03-05T15:45:10.493Z,99966.00
2023-03-05T15:47:36.922Z,99967.66
2023-03-05T15:50:03.641Z,99967.59
2023-03-05T15:52:30.158Z,99965.81
2023-03-05T15:54:56.591Z,99957.16
2023-03-05T15:57:23.650Z,99962.53
2023-03-05T15:59:50.161Z,99956.34
2023-03-05T16:02:16.794Z,99955.38
2023-03-05T16:04:43.274Z,99948.34
2023-03-05T16:07:11.786Z,99950.00
2023-03-05T16:09:45.948Z,99945.59
2023-03-05T16:12:18.028Z,99950.00
2023-03-05T16:14:45.760Z,99944.75
2023-03-05T16:17:13.428Z,99945.66
2023-03-05T16:19:44.283Z,99938.66
2023-03-05T16:22:10.766Z,99938.75
2023-03-05T16:24:37.289Z,99935.25
2023-03-05T16:27:04.692Z,99929.97
2023-03-05T16:29:32.486Z,99930.75
2023-03-05T16:32:02.274Z,99927.16
2023-03-05T16:34:28.764Z,99925.25
2023-03-05T16:36:55.477Z,99925.22
2023-03-05T16:39:22.651Z,99928.66
2023-03-05T16:41:50.161Z,99932.19
2023-03-05T16:44:16.578Z,99921.69
2023-03-05T16:46:47.259Z,99923.41
2023-03-05T16:49:13.712Z,99915.53
2023-03-05T16:51:40.216Z,99913.75
2023-03-05T16:54:09.048Z,99922.50
2023-03-05T16:56:36.669Z,99914.63
2023-03-05T16:59:04.218Z,99922.38
2023-03-05T17:01:31.077Z,99921.44
2023-03-05T17:03:59.393Z,99919.56
2023-03-05T17:06:28.844Z,99917.69
2023-03-05T17:08:55.839Z,99921.09
2023-03-05T17:11:22.504Z,99917.50
2023-03-05T17:13:49.282Z,99917.50
2023-03-05T17:16:17.839Z,99916.50
2023-03-05T17:18:44.653Z,99922.13
2023-03-05T17:21:12.770Z,99915.66
2023-03-05T17:23:40.053Z,99907.50
2023-03-05T17:26:09.205Z,99907.44
2023-03-05T17:28:35.884Z,99908.22
2023-03-05T17:31:03.892Z,99900.28
2023-03-05T17:33:34.686Z,99902.03
2023-03-05T17:36:01.526Z,99904.66
2023-03-05T17:38:28.177Z,99908.22
2023-03-05T17:40:54.894Z,99907.38
2023-03-05T17:43:21.897Z,99907.34
2023-03-05T17:45:48.785Z,99911.66
2023-03-05T17:48:15.989Z,99913.41
2023-03-05T17:50:44.821Z,99913.44
2023-03-05T17:53:11.532Z,99918.69
2023-03-05T17:55:39.984Z,99912.63
2023-03-05T17:58:06.523Z,99903.75
2023-03-05T18:00:33.431Z,99911.53
2023-03-05T18:03:00.183Z,99898.31
2023-03-05T18:05:27.802Z,99905.13
2023-03-05T18:07:55.563Z,99903.34
2023-03-05T18:10:24.939Z,99900.72
2023-03-05T18:12:51.797Z,99900.72
2023-03-05T18:15:21.367Z,99901.59
2023-03-05T18:17:48.366Z,99894.63
2023-03-05T18:20:41.818Z,99899.81
2023-03-05T18:23:09.946Z,99895.38
2023-03-05T18:25:36.547Z,99897.06
2023-03-05T18:28:08.856Z,99881.28
2023-03-05T18:30:36.413Z,99888.22
2023-03-05T18:33:03.902Z,99883.91
2023-03-05T18:35:30.963Z,99875.22
2023-03-05T18:37:57.993Z,99879.59
2023-03-05T18:40:26.717Z,99870.84
2023-03-05T18:42:53.176Z,99866.50
2023-03-05T18:45:22.255Z,99867.31
2023-03-05T18:47:53.885Z,99853.25
2023-03-05T18:50:22.626Z,99856.75
2023-03-05T18:52:49.622Z,99861.16
2023-03-05T18:55:19.246Z,99862.94
2023-03-05T18:57:46.130Z,99865.53
2023-03-05T19:00:18.422Z,99845.50
2023-03-05T19:02:44.930Z,99846.34
2023-03-05T19:05:14.064Z,99856.88
2023-03-05T19:07:41.006Z,99854.31
2023-03-05T19:10:09.858Z,99842.13
2023-03-05T19:12:45.429Z,99837.81
2023-03-05T19:15:13.254Z,99846.56
2023-03-05T19:17:40.413Z,99848.34
2023-03-05T19:20:08.181Z,99844.91
2023-03-05T19:22:34.877Z,99844.09
2023-03-05T19:25:01.775Z,99845.03
2023-03-05T19:27:28.362Z,99845.06
2023-03-05T19:29:54.949Z,99836.38
2023-03-05T19:32:21.939Z,99834.66
2023-03-05T19:34:49.106Z,99825.06
2023-03-05T19:37:15.753Z,99835.53
2023-03-05T19:39:42.428Z,99830.28
2023-03-05T19:42:08.914Z,99822.53
2023-03-05T19:44:35.479Z,99819.84
2023-03-05T19:47:02.367Z,99819.84
2023-03-05T19:49:28.861Z,99818.97
2023-03-05T19:51:55.485Z,99816.38
2023-03-05T19:54:22.911Z,99818.09
2023-03-05T19:56:50.185Z,99811.03
2023-03-05T19:59:18.706Z,99811.03
2023-03-05T20:01:46.005Z,99810.09
2023-03-05T20:04:15.628Z,99805.72
2023-03-05T20:06:42.323Z,99806.63
2023-03-05T20:09:09.743Z,99803.09
2023-03-05T20:11:36.622Z,99807.44
2023-03-05T20:14:03.706Z,99792.50
2023-03-05T20:16:35.208Z,99794.28
2023-03-05T20:19:03.136Z,99805.53
2023-03-05T20:21:33.739Z,99794.97
2023-03-05T20:24:04.739Z,99788.81
2023-03-05T20:26:35.436Z,99796.69
2023-03-05T20:29:04.753Z,99788.78
2023-03-05T20:31:35.292Z,99791.34
2023-03-05T20:34:01.959Z,99785.31
2023-03-05T20:36:28.420Z,99783.56
2023-03-05T20:38:55.793Z,99785.34
2023-03-05T20:41:22.598Z,99781.00
2023-03-05T20:43:50.656Z,99784.50
2023-03-05T20:46:29.307Z,99782.81
2023-03-05T20:48:59.079Z,99775.78
2023-03-05T20:51:37.874Z,99773.19
2023-03-05T20:54:10.036Z,99767.09
2023-03-05T20:56:37.444Z,99768.84
2023-03-05T20:59:08.488Z,99761.84
2023-03-05T21:01:37.549Z,99764.41
2023-03-05T21:04:04.453Z,99762.66
2023-03-05T21:06:32.752Z,99755.63
2023-03-05T21:08:59.877Z,99755.63
2023-03-05T21:11:26.646Z,99756.53
2023-03-05T21:13:53.652Z,99752.16
2023-03-05T21:16:23.884Z,99751.28
2023-03-05T21:18:51.200Z,99738.19
2023-03-05T21:21:18.760Z,99751.28
2023-03-05T21:23:46.206Z,99739.06
2023-03-05T21:26:13.592Z,99734.66
2023-03-05T21:28:40.556Z,99735.53
2023-03-05T21:31:15.049Z,99736.34
2023-03-05T21:33:45.049Z,99726.69
2023-03-05T21:36:12.160Z,99728.38
2023-03-05T21:38:38.966Z,99724.88
2023-03-05T21:41:05.707Z,99724.88
2023-03-05T21:43:32.560Z,99715.28
2023-03-05T21:46:01.409Z,99721.34
2023-03-05T21:48:27.955Z,99709.09
2023-03-05T21:50:55.228Z,99708.22
2023-03-05T21:53:22.160Z,99702.94
2023-03-05T21:56:15.381Z,99702.91
2023-03-05T21:58:41.816Z,99696.78
2023-03-05T22:01:11.492Z,99693.34
2023-03-05T22:03:40.800Z,99692.41
2023-03-05T22:06:11.782Z,99682.78
2023-03-05T22:08:38.353Z,99683.63
2023-03-05T22:11:17.300Z,99676.59
2023-03-05T22:13:44.320Z,99678.28
2023-03-05T22:16:11.396Z,99679.97
2023-03-05T22:18:37.996Z,99676.47
2023-03-05T22:21:04.714Z,99671.22
2023-03-05T22:23:36.862Z,99665.06
2023-03-05T22:26:07.629Z,99658.06
2023-03-05T22:28:35.790Z,99659.78
2023-03-05T22:31:02.775Z,99658.06
2023-03-05T22:33:29.499Z,99651.91
2023-03-05T22:35:56.316Z,99647.50
2023-03-05T22:38:23.136Z,99650.13
2023-03-05T22:40:50.323Z,99637.03
2023-03-05T22:43:18.262Z,99630.91
2023-03-05T22:45:45.143Z,99631.75
2023-03-05T22:48:11.990Z,99624.75
2023-03-05T22:50:39.740Z,99627.38
2023-03-05T22:53:06.294Z,99622.13
2023-03-05T22:55:32.813Z,99629.06
2023-03-05T22:57:59.262Z,99629.06
2023-03-05T23:00:26.735Z,99630.84
2023-03-05T23:02:53.965Z,99626.44
2023-03-05T23:05:20.834Z,99622.88
2023-03-05T23:07:47.405Z,99622.88
2023-03-05T23:10:18.040Z,99617.63
2023-03-05T23:12:49.289Z,99615.88
2023-03-05T23:15:22.502Z,99612.34
2023-03-05T23:17:49.631Z,99613.16
2023-03-05T23:20:18.044Z,99613.22
2023-03-05T23:22:45.112Z,99620.22
2023-03-05T23:25:13.939Z,99618.47
2023-03-05T23:27:40.834Z,99617.56
2023-03-05T23:30:16.555Z,99611.44
2023-03-05T23:32:45.269Z,99605.31
2023-03-05T23:35:13.843Z,99600.97
2023-03-05T23:37:41.215Z,99605.31
2023-03-05T23:40:11.430Z,99601.78
2023-03-05T23:42:38.466Z,99601.75
2023-03-05T23:45:07.144Z,99601.72
2023-03-05T23:47:36.938Z,99605.19
2023-03-05T23:50:05.974Z,99598.22
2023-03-05T23:52:32.672Z,99595.56
2023-03-05T23:54:59.523Z,99592.88
2023-03-05T23:57:25.998Z,99591.09
2023-03-05T23:59:52.552Z,99592.84
